Time;durP1;ratioP1;P1;durP2;ratioP2;P2;SDS_P1;SDS_P2;PMS_P1;PMS_P2;Temp;Humidity;BMP_temperature;BMP_pressure;BME280_temperature;BME280_humidity;BME280_pressure;Samples;Min_cycle;Max_cycle;Signal;HPM_P1;HPM_P2
2024/04/13 00:01:55;;;;;;;23.55;13.20;;;8.70;99.90;;;;;;5354501;26;20008;-77
2024/04/13 00:04:23;;;;;;;20.52;12.82;;;8.70;99.90;;;;;;5382507;26;20015;-77
2024/04/13 00:06:50;;;;;;;16.63;12.60;;;8.60;99.90;;;;;;5382434;26;20004;-77
2024/04/13 00:09:16;;;;;;;18.13;12.88;;;8.60;99.90;;;;;;5373185;26;20009;-77
2024/04/13 00:11:42;;;;;;;20.83;12.57;;;8.60;99.90;;;;;;5360830;26;20461;-77
2024/04/13 00:14:07;;;;;;;19.65;12.68;;;8.60;99.90;;;;;;5379729;26;20000;-78
2024/04/13 00:16:34;;;;;;;16.05;11.52;;;8.50;99.90;;;;;;5381085;26;20438;-77
2024/04/13 00:19:00;;;;;;;23.58;12.02;;;8.50;99.90;;;;;;5380133;26;20005;-78
2024/04/13 00:21:25;;;;;;;18.35;11.25;;;8.50;99.90;;;;;;5362025;26;20374;-78
2024/04/13 00:23:52;;;;;;;14.13;10.20;;;8.50;99.90;;;;;;5359806;26;20400;-78
2024/04/13 00:26:18;;;;;;;16.95;11.20;;;8.50;99.90;;;;;;5374669;26;20106;-78
2024/04/13 00:28:44;;;;;;;15.07;10.80;;;8.40;99.90;;;;;;5377436;26;20004;-78
2024/04/13 00:31:11;;;;;;;18.08;10.43;;;8.40;99.90;;;;;;5382004;26;20016;-77
2024/04/13 00:33:38;;;;;;;13.82;10.27;;;8.40;99.90;;;;;;5381508;26;20023;-77
2024/04/13 00:36:05;;;;;;;15.20;10.38;;;8.30;99.90;;;;;;5380572;26;20008;-77
2024/04/13 00:38:31;;;;;;;17.95;11.70;;;8.30;99.90;;;;;;5372561;26;20438;-77
2024/04/13 00:40:56;;;;;;;15.23;10.60;;;8.20;99.90;;;;;;5345705;26;20083;-77
2024/04/13 00:43:22;;;;;;;20.25;11.20;;;8.20;99.90;;;;;;5347228;26;20048;-77
2024/04/13 00:45:48;;;;;;;16.80;11.25;;;8.10;99.90;;;;;;5346234;26;20009;-77
2024/04/13 00:48:24;;;;;;;14.73;10.55;;;8.10;99.90;;;;;;5365504;26;20008;-77
2024/04/13 00:51:00;;;;;;;16.77;10.77;;;8.00;99.90;;;;;;5379882;26;20027;-77
2024/04/13 00:53:29;;;;;;;16.92;10.63;;;8.00;99.90;;;;;;5381307;26;20018;-77
2024/04/13 00:56:00;;;;;;;17.30;10.20;;;8.00;99.90;;;;;;5365829;26;19996;-77
2024/04/13 00:58:27;;;;;;;19.33;10.25;;;8.00;99.90;;;;;;5382023;26;20000;-77
2024/04/13 01:00:56;;;;;;;19.63;9.88;;;7.90;99.90;;;;;;5354165;26;20085;-77
2024/04/13 01:03:26;;;;;;;15.05;9.77;;;7.80;99.90;;;;;;5365236;26;20090;-77
2024/04/13 01:05:52;;;;;;;18.48;10.80;;;7.80;99.90;;;;;;5360178;26;20023;-76
2024/04/13 01:08:21;;;;;;;17.50;10.35;;;7.80;99.90;;;;;;5409529;26;20000;-76
2024/04/13 01:10:47;;;;;;;17.52;10.50;;;7.80;99.90;;;;;;5374347;26;20405;-77
2024/04/13 01:13:13;;;;;;;16.50;11.18;;;7.70;99.90;;;;;;5344860;26;20016;-77
2024/04/13 01:15:39;;;;;;;15.60;10.13;;;7.70;99.90;;;;;;5372328;26;20138;-77
2024/04/13 01:18:10;;;;;;;15.43;10.38;;;7.70;99.90;;;;;;5356039;26;20023;-77
2024/04/13 01:20:39;;;;;;;17.55;10.02;;;7.60;99.90;;;;;;5351926;26;20008;-77
2024/04/13 01:23:06;;;;;;;16.67;10.70;;;7.60;99.90;;;;;;5381504;26;20012;-77
2024/04/13 01:25:33;;;;;;;14.90;9.48;;;7.50;99.90;;;;;;5381616;26;20074;-76
2024/04/13 01:27:59;;;;;;;13.50;10.35;;;7.50;99.90;;;;;;5362272;26;20000;-76
2024/04/13 01:30:24;;;;;;;11.80;8.90;;;7.40;99.90;;;;;;5365761;26;20007;-76
2024/04/13 01:32:51;;;;;;;14.05;9.10;;;7.40;99.90;;;;;;5380169;26;20027;-77
2024/04/13 01:35:19;;;;;;;15.77;10.20;;;7.40;99.90;;;;;;5377485;26;20081;-77
2024/04/13 01:37:45;;;;;;;12.50;9.63;;;7.40;99.90;;;;;;5360741;26;20005;-77
2024/04/13 01:40:11;;;;;;;14.57;10.80;;;7.40;99.90;;;;;;5375182;26;20077;-77
2024/04/13 01:42:39;;;;;;;14.18;10.13;;;7.30;99.90;;;;;;5376064;26;20466;-77
2024/04/13 01:45:05;;;;;;;16.95;10.48;;;7.20;99.90;;;;;;5378106;26;20444;-76
2024/04/13 01:47:30;;;;;;;16.23;10.15;;;7.20;99.90;;;;;;5381151;26;20004;-76
2024/04/13 01:49:56;;;;;;;16.60;9.75;;;7.20;99.90;;;;;;5375481;26;20024;-77
2024/04/13 01:52:22;;;;;;;15.60;10.00;;;7.20;99.90;;;;;;5379555;26;20006;-77
2024/04/13 01:54:48;;;;;;;12.32;9.20;;;7.20;99.90;;;;;;5375559;26;20449;-77
2024/04/13 01:57:14;;;;;;;13.80;9.05;;;7.20;99.90;;;;;;5378541;26;20012;-77
2024/04/13 01:59:42;;;;;;;11.15;8.00;;;7.20;99.90;;;;;;5366318;26;20007;-76
2024/04/13 02:02:09;;;;;;;12.95;7.95;;;7.20;99.90;;;;;;5366841;26;22708;-77
2024/04/13 02:04:35;;;;;;;12.45;9.25;;;7.10;99.90;;;;;;5356285;26;19996;-77
2024/04/13 02:07:01;;;;;;;13.90;9.05;;;7.20;99.90;;;;;;5377597;26;20111;-77
2024/04/13 02:09:28;;;;;;;15.80;11.02;;;7.20;99.90;;;;;;5379304;26;20004;-76
2024/04/13 02:11:54;;;;;;;14.30;10.05;;;7.30;99.90;;;;;;5372431;26;20556;-77
2024/04/13 02:14:20;;;;;;;17.23;9.63;;;7.30;99.90;;;;;;5378718;26;20397;-77
2024/04/13 02:16:46;;;;;;;14.18;9.70;;;7.30;99.90;;;;;;5380994;26;20004;-76
2024/04/13 02:19:14;;;;;;;20.30;11.80;;;7.40;99.90;;;;;;5379978;26;20012;-77
2024/04/13 02:21:40;;;;;;;16.65;11.27;;;7.40;99.90;;;;;;5380390;26;20004;-76
2024/04/13 02:24:06;;;;;;;16.38;11.27;;;7.40;99.90;;;;;;5380017;26;20464;-77
2024/04/13 02:26:31;;;;;;;18.05;10.40;;;7.40;99.90;;;;;;5380477;26;20019;-77
2024/04/13 02:28:58;;;;;;;17.40;12.15;;;7.50;99.90;;;;;;5380424;26;20003;-77
2024/04/13 02:31:24;;;;;;;14.30;11.00;;;7.50;99.90;;;;;;5345252;26;19993;-77
2024/04/13 02:33:50;;;;;;;16.77;11.07;;;7.60;99.90;;;;;;5349970;26;20489;-77
2024/04/13 02:36:15;;;;;;;19.98;12.18;;;7.60;99.90;;;;;;5378433;26;20008;-77
2024/04/13 02:38:44;;;;;;;15.57;11.65;;;7.60;99.90;;;;;;5357115;26;20036;-78
2024/04/13 02:41:10;;;;;;;18.55;11.25;;;7.60;99.90;;;;;;5376211;26;20080;-77
2024/04/13 02:43:35;;;;;;;18.60;11.95;;;7.60;99.90;;;;;;5344280;26;20001;-78
2024/04/13 02:46:11;;;;;;;17.98;11.38;;;7.60;99.90;;;;;;5374729;26;20001;-77
2024/04/13 02:48:43;;;;;;;16.45;10.82;;;7.60;99.90;;;;;;5380312;26;20362;-77
2024/04/13 02:51:10;;;;;;;18.55;11.15;;;7.60;99.90;;;;;;5377559;26;20004;-77
2024/04/13 02:53:37;;;;;;;16.73;11.18;;;7.50;99.90;;;;;;5380347;26;20468;-77
2024/04/13 02:56:07;;;;;;;15.90;10.30;;;7.50;99.90;;;;;;5379160;26;20004;-77
2024/04/13 02:58:33;;;;;;;16.52;11.13;;;7.50;99.90;;;;;;5380294;26;20004;-76
2024/04/13 03:01:01;;;;;;;15.50;10.32;;;7.50;99.90;;;;;;5376296;26;20006;-77
2024/04/13 03:03:27;;;;;;;22.65;11.95;;;7.50;99.90;;;;;;5379723;26;20449;-77
2024/04/13 03:06:01;;;;;;;20.00;12.02;;;7.50;99.90;;;;;;5377061;26;20008;-77
2024/04/13 03:08:27;;;;;;;19.73;11.98;;;7.40;99.90;;;;;;5377694;26;20005;-77
2024/04/13 03:10:57;;;;;;;29.20;13.65;;;7.40;99.90;;;;;;5383160;26;20014;-77
2024/04/13 03:13:23;;;;;;;15.23;10.75;;;7.40;99.90;;;;;;5383527;26;20008;-77
2024/04/13 03:16:07;;;;;;;18.35;11.77;;;7.40;99.90;;;;;;5383180;26;20063;-78
2024/04/13 03:18:33;;;;;;;17.25;12.82;;;7.40;99.90;;;;;;5382454;26;20044;-78
2024/04/13 03:21:00;;;;;;;16.55;11.20;;;7.40;99.90;;;;;;5380544;26;20008;-78
2024/04/13 03:23:29;;;;;;;26.15;11.85;;;7.30;99.90;;;;;;5380628;26;20089;-77
2024/04/13 03:25:55;;;;;;;20.38;11.98;;;7.30;99.90;;;;;;5379558;26;20376;-77
2024/04/13 03:28:24;;;;;;;22.48;11.32;;;7.30;99.90;;;;;;5383318;26;20000;-77
2024/04/13 03:30:50;;;;;;;20.52;10.75;;;7.20;99.90;;;;;;5382754;26;20074;-77
2024/04/13 03:33:16;;;;;;;18.63;11.65;;;7.20;99.90;;;;;;5372348;26;20037;-77
2024/04/13 03:35:42;;;;;;;20.80;10.68;;;7.20;99.90;;;;;;5360939;26;20069;-77
2024/04/13 03:38:07;;;;;;;20.85;11.63;;;7.20;99.90;;;;;;5381011;26;20011;-77
2024/04/13 03:40:36;;;;;;;23.63;12.02;;;7.20;99.90;;;;;;5374657;26;20040;-76
2024/04/13 03:43:03;;;;;;;19.52;11.15;;;7.20;99.90;;;;;;5360120;26;20536;-77
2024/04/13 03:45:29;;;;;;;20.02;11.30;;;7.20;99.90;;;;;;5368434;26;20012;-77
2024/04/13 03:47:55;;;;;;;17.75;10.70;;;7.20;99.90;;;;;;5366006;26;20005;-77
2024/04/13 03:50:21;;;;;;;19.00;10.25;;;7.20;99.90;;;;;;5373380;26;20004;-77
2024/04/13 03:52:46;;;;;;;22.10;11.60;;;7.20;99.90;;;;;;5381549;26;19996;-77
2024/04/13 03:55:12;;;;;;;18.92;11.52;;;7.20;99.90;;;;;;5377247;26;20000;-77
2024/04/13 03:57:38;;;;;;;19.73;11.32;;;7.20;99.90;;;;;;5372008;26;20033;-77
2024/04/13 04:00:06;;;;;;;20.83;11.02;;;7.20;99.90;;;;;;5372675;26;20073;-77
2024/04/13 04:02:33;;;;;;;19.45;11.65;;;7.20;99.90;;;;;;5364833;26;20354;-77
2024/04/13 04:04:59;;;;;;;20.33;11.23;;;7.20;99.90;;;;;;5378573;26;20074;-77
2024/04/13 04:07:24;;;;;;;20.98;12.32;;;7.20;99.90;;;;;;5380527;26;20434;-77
2024/04/13 04:09:50;;;;;;;21.30;11.57;;;7.20;99.90;;;;;;5353723;26;20009;-77
2024/04/13 04:12:16;;;;;;;17.65;11.77;;;7.10;99.90;;;;;;5367846;26;20004;-78
2024/04/13 04:14:41;;;;;;;18.42;11.85;;;7.20;99.90;;;;;;5368609;26;20020;-77
2024/04/13 04:17:07;;;;;;;22.02;11.95;;;7.20;99.90;;;;;;5351617;26;20021;-76
2024/04/13 04:19:33;;;;;;;17.67;12.23;;;7.20;99.90;;;;;;5380894;26;20011;-77
2024/04/13 04:21:59;;;;;;;18.15;13.20;;;7.20;99.90;;;;;;5380714;26;20005;-77
2024/04/13 04:24:25;;;;;;;18.63;12.07;;;7.30;99.90;;;;;;5382038;26;20469;-76
2024/04/13 04:26:51;;;;;;;23.70;12.05;;;7.30;99.90;;;;;;5382165;26;20001;-77
2024/04/13 04:29:16;;;;;;;25.95;14.45;;;7.40;99.90;;;;;;5381894;26;20341;-77
2024/04/13 04:31:42;;;;;;;18.48;12.30;;;7.50;99.90;;;;;;5375408;26;20008;-77
2024/04/13 04:34:09;;;;;;;21.83;13.68;;;7.50;99.90;;;;;;5381579;26;20004;-77
2024/04/13 04:36:35;;;;;;;23.92;12.57;;;7.50;99.90;;;;;;5380155;26;20019;-78
2024/04/13 04:39:00;;;;;;;19.55;12.13;;;7.50;99.90;;;;;;5380076;26;20000;-77
2024/04/13 04:41:26;;;;;;;24.38;13.20;;;7.50;99.90;;;;;;5381756;26;20008;-78
2024/04/13 04:43:53;;;;;;;27.67;13.82;;;7.50;99.90;;;;;;5381718;26;20423;-77
2024/04/13 04:46:20;;;;;;;23.85;13.38;;;7.50;99.90;;;;;;5379878;26;19996;-77
2024/04/13 04:48:51;;;;;;;26.92;18.05;;;7.50;99.90;;;;;;5396550;26;20004;-77
2024/04/13 04:51:18;;;;;;;38.13;21.33;;;7.60;99.90;;;;;;5373437;26;20442;-77
2024/04/13 04:53:44;;;;;;;32.90;21.75;;;7.60;99.90;;;;;;5366528;26;20023;-77
2024/04/13 04:56:09;;;;;;;31.27;19.42;;;7.70;99.90;;;;;;5389304;26;20454;-77
2024/04/13 04:58:36;;;;;;;28.63;18.60;;;7.80;99.90;;;;;;5381100;26;20000;-77
2024/04/13 05:01:02;;;;;;;28.83;18.85;;;7.80;99.90;;;;;;5370536;26;20001;-78
2024/04/13 05:03:28;;;;;;;33.25;22.17;;;7.90;99.90;;;;;;5351996;26;20082;-77
2024/04/13 05:05:54;;;;;;;36.75;22.55;;;8.00;99.90;;;;;;5356325;26;20336;-76
2024/04/13 05:08:20;;;;;;;33.42;23.08;;;8.00;99.90;;;;;;5376385;26;20016;-77
2024/04/13 05:10:47;;;;;;;38.97;23.70;;;8.00;99.90;;;;;;5377008;26;20148;-77
2024/04/13 05:13:17;;;;;;;36.95;23.13;;;8.10;99.90;;;;;;5380694;26;20023;-78
2024/04/13 05:15:43;;;;;;;39.92;23.30;;;8.10;99.90;;;;;;5381774;26;20004;-78
2024/04/13 05:18:09;;;;;;;41.33;23.10;;;8.20;99.90;;;;;;5374665;26;20346;-78
2024/04/13 05:20:36;;;;;;;34.03;20.77;;;8.20;99.90;;;;;;5369407;26;20013;-77
2024/04/13 05:23:03;;;;;;;28.95;19.52;;;8.30;99.90;;;;;;5367870;26;20008;-78
2024/04/13 05:25:29;;;;;;;31.20;17.75;;;8.40;99.90;;;;;;5377780;26;20437;-76
2024/04/13 05:27:55;;;;;;;26.80;16.67;;;8.50;99.90;;;;;;5378483;26;20056;-78
2024/04/13 05:30:21;;;;;;;31.13;18.08;;;8.70;99.90;;;;;;5348963;26;20089;-77
2024/04/13 05:32:47;;;;;;;29.00;18.90;;;8.80;99.90;;;;;;5377992;26;20450;-77
2024/04/13 05:35:16;;;;;;;29.30;18.13;;;9.00;99.90;;;;;;5379142;26;20327;-78
2024/04/13 05:37:42;;;;;;;32.95;19.67;;;9.20;99.90;;;;;;5379433;26;20434;-77
2024/04/13 05:40:08;;;;;;;32.00;23.38;;;9.40;99.90;;;;;;5375295;26;20008;-77
2024/04/13 05:42:34;;;;;;;36.58;24.65;;;9.50;99.90;;;;;;5377869;26;20323;-77
2024/04/13 05:44:59;;;;;;;36.35;22.27;;;9.70;99.90;;;;;;5373044;26;20035;-77
2024/04/13 05:47:25;;;;;;;34.95;23.52;;;9.70;99.90;;;;;;5318215;26;20079;-77
2024/04/13 05:49:51;;;;;;;32.45;22.65;;;9.90;99.90;;;;;;5348731;26;20460;-79
2024/04/13 05:52:17;;;;;;;32.90;21.92;;;10.00;99.90;;;;;;5378196;26;20020;-77
2024/04/13 05:54:42;;;;;;;49.17;23.77;;;10.20;99.90;;;;;;5366130;26;20008;-78
2024/04/13 05:57:08;;;;;;;34.30;21.98;;;10.30;99.90;;;;;;5373206;26;20086;-78
2024/04/13 05:59:34;;;;;;;35.22;24.05;;;10.40;99.90;;;;;;5376162;26;20442;-78
2024/04/13 06:02:00;;;;;;;35.90;23.13;;;10.50;99.90;;;;;;5380439;26;20012;-78
2024/04/13 06:04:26;;;;;;;34.90;22.67;;;10.70;99.90;;;;;;5376744;26;20011;-78
2024/04/13 06:06:52;;;;;;;32.47;23.80;;;10.80;99.90;;;;;;5377164;26;20012;-78
2024/04/13 06:09:17;;;;;;;47.25;28.27;;;11.00;99.90;;;;;;5379845;26;20023;-78
2024/04/13 06:11:43;;;;;;;40.88;29.65;;;11.10;99.90;;;;;;5375876;26;20004;-77
2024/04/13 06:14:09;;;;;;;40.00;28.10;;;11.30;99.90;;;;;;5364271;26;20020;-77
2024/04/13 06:16:34;;;;;;;38.25;24.50;;;11.40;99.90;;;;;;5366560;26;20433;-78
2024/04/13 06:19:00;;;;;;;31.52;23.05;;;11.60;99.90;;;;;;5331899;26;20020;-78
2024/04/13 06:21:26;;;;;;;32.05;21.58;;;11.80;99.90;;;;;;5366620;26;20107;-78
2024/04/13 06:23:52;;;;;;;28.38;19.23;;;12.20;99.90;;;;;;5371661;26;20009;-78
2024/04/13 06:26:18;;;;;;;31.35;19.70;;;12.50;99.90;;;;;;5379689;26;20062;-78
2024/04/13 06:28:43;;;;;;;30.33;20.30;;;12.70;99.90;;;;;;5359590;26;19997;-78
2024/04/13 06:31:09;;;;;;;32.55;19.40;;;12.90;99.90;;;;;;5379068;26;20008;-78
2024/04/13 06:33:34;;;;;;;25.23;15.63;;;13.10;99.90;;;;;;5377608;26;20629;-78
2024/04/13 06:36:00;;;;;;;25.50;16.55;;;13.40;99.90;;;;;;5379624;26;20081;-77
2024/04/13 06:38:26;;;;;;;25.38;15.30;;;13.70;99.90;;;;;;5377084;26;20026;-78
2024/04/13 06:40:54;;;;;;;16.65;11.55;;;13.90;99.90;;;;;;5377848;26;20001;-79
2024/04/13 06:43:20;;;;;;;20.52;9.98;;;14.10;99.90;;;;;;5379626;26;19996;-80
2024/04/13 06:45:47;;;;;;;12.77;9.00;;;14.30;99.90;;;;;;5379166;26;20005;-79
2024/04/13 06:48:13;;;;;;;15.30;9.20;;;14.60;99.90;;;;;;5360178;26;20016;-79
2024/04/13 06:50:57;;;;;;;11.00;7.60;;;14.90;99.90;;;;;;5358283;26;20086;-79
2024/04/13 06:53:23;;;;;;;11.90;7.50;;;15.00;99.90;;;;;;5374108;26;20452;-79
2024/04/13 06:55:48;;;;;;;13.45;7.38;;;15.10;99.90;;;;;;5377224;26;19997;-80
2024/04/13 06:58:14;;;;;;;9.07;6.40;;;15.30;99.90;;;;;;5381587;26;20008;-79
2024/04/13 07:00:40;;;;;;;14.07;7.28;;;15.50;99.90;;;;;;5378011;26;20441;-79
2024/04/13 07:03:05;;;;;;;12.25;8.40;;;15.40;99.90;;;;;;5382751;26;20396;-78
2024/04/13 07:05:31;;;;;;;13.50;7.82;;;15.50;99.90;;;;;;5382520;26;20000;-78
2024/04/13 07:07:57;;;;;;;12.25;7.90;;;15.60;99.90;;;;;;5382725;26;20007;-79
2024/04/13 07:10:23;;;;;;;12.55;7.80;;;15.70;99.90;;;;;;5359655;26;20023;-78
2024/04/13 07:12:48;;;;;;;11.85;9.15;;;15.90;99.90;;;;;;5367304;26;20019;-80
2024/04/13 07:15:14;;;;;;;13.07;8.20;;;15.80;99.90;;;;;;5371230;26;20005;-80
2024/04/13 07:17:40;;;;;;;12.70;8.60;;;15.80;99.90;;;;;;5377951;26;20000;-80
2024/04/13 07:20:07;;;;;;;11.93;7.90;;;15.80;99.90;;;;;;5376813;26;20000;-80
2024/04/13 07:22:33;;;;;;;15.35;9.15;;;16.00;99.90;;;;;;5363381;26;20020;-81
2024/04/13 07:24:59;;;;;;;12.95;8.45;;;16.00;99.90;;;;;;5377490;26;20086;-80
2024/04/13 07:27:24;;;;;;;12.52;9.18;;;16.20;99.90;;;;;;5381299;26;20015;-80
2024/04/13 07:29:50;;;;;;;12.23;9.20;;;16.30;98.40;;;;;;5380858;26;20012;-80
2024/04/13 07:32:16;;;;;;;15.07;9.63;;;16.40;97.00;;;;;;5373224;26;20005;-80
2024/04/13 07:34:42;;;;;;;16.25;10.00;;;16.30;95.00;;;;;;5377924;26;20031;-79
2024/04/13 07:37:07;;;;;;;13.48;10.00;;;16.60;95.40;;;;;;5380397;26;20012;-79
2024/04/13 07:39:33;;;;;;;12.40;9.77;;;16.70;90.10;;;;;;5382501;26;20334;-80
2024/04/13 07:41:59;;;;;;;15.40;10.52;;;16.90;91.30;;;;;;5379393;26;20012;-80
2024/04/13 07:44:24;;;;;;;13.27;11.32;;;17.10;89.60;;;;;;5376988;26;20019;-80
2024/04/13 07:46:50;;;;;;;15.30;12.18;;;16.90;87.00;;;;;;5380722;26;20015;-81
2024/04/13 07:49:16;;;;;;;17.63;11.98;;;16.50;87.70;;;;;;5382388;26;20458;-80
2024/04/13 07:51:41;;;;;;;15.80;11.50;;;16.60;90.00;;;;;;5382257;26;20012;-81
2024/04/13 07:54:07;;;;;;;20.20;12.57;;;16.50;89.10;;;;;;5380614;26;20180;-80
2024/04/13 07:56:33;;;;;;;15.45;12.18;;;16.70;85.60;;;;;;5377555;26;20008;-80
2024/04/13 07:58:58;;;;;;;15.18;11.43;;;17.00;85.70;;;;;;5381047;26;20391;-80
2024/04/13 08:01:24;;;;;;;12.23;9.88;;;17.40;87.50;;;;;;5368893;26;20005;-80
2024/04/13 08:03:49;;;;;;;18.88;12.38;;;17.50;82.40;;;;;;5374755;26;20008;-80
2024/04/13 08:06:15;;;;;;;18.13;11.10;;;17.40;81.00;;;;;;5378430;26;20039;-79
2024/04/13 08:08:41;;;;;;;12.40;10.50;;;17.20;80.80;;;;;;5374448;26;20005;-80
2024/04/13 08:11:07;;;;;;;12.00;9.75;;;17.40;80.80;;;;;;5371750;26;20036;-80
2024/04/13 08:13:33;;;;;;;12.60;9.68;;;17.70;82.50;;;;;;5349542;26;20001;-80
2024/04/13 08:16:03;;;;;;;11.85;9.25;;;17.60;77.20;;;;;;5380059;26;20015;-80
2024/04/13 08:18:29;;;;;;;12.77;9.23;;;17.90;78.90;;;;;;5367793;26;20044;-80
2024/04/13 08:20:56;;;;;;;13.23;10.02;;;17.80;79.00;;;;;;5351755;26;20360;-80
2024/04/13 08:23:22;;;;;;;13.73;10.43;;;17.80;74.30;;;;;;5357431;26;20000;-80
2024/04/13 08:25:48;;;;;;;13.68;9.75;;;17.60;72.90;;;;;;5376918;26;20018;-81
2024/04/13 08:28:13;;;;;;;17.85;9.60;;;17.20;76.00;;;;;;5372757;26;20011;-81
2024/04/13 08:30:39;;;;;;;13.00;8.93;;;17.30;79.40;;;;;;5381985;26;20150;-80
2024/04/13 08:33:05;;;;;;;13.88;8.77;;;17.20;79.90;;;;;;5351667;26;19997;-80
2024/04/13 08:35:30;;;;;;;11.02;7.90;;;17.20;79.40;;;;;;5340740;26;20004;-80
2024/04/13 08:37:56;;;;;;;12.85;8.55;;;17.30;79.70;;;;;;5373358;26;20125;-80
2024/04/13 08:40:22;;;;;;;13.65;8.23;;;17.50;80.00;;;;;;5360455;26;20011;-80
2024/04/13 08:42:53;;;;;;;12.70;8.18;;;17.70;79.90;;;;;;5372177;26;20015;-81
2024/04/13 08:45:21;;;;;;;8.75;7.85;;;17.70;75.70;;;;;;5380036;26;20015;-80
2024/04/13 08:47:49;;;;;;;10.40;7.57;;;17.70;75.60;;;;;;5375583;26;20012;-81
2024/04/13 08:50:15;;;;;;;9.88;7.55;;;17.70;75.20;;;;;;5370922;26;20004;-79
2024/04/13 08:52:45;;;;;;;12.65;7.78;;;17.90;75.50;;;;;;5381429;26;20000;-80
2024/04/13 08:55:10;;;;;;;7.93;7.13;;;18.00;73.40;;;;;;5378830;26;20019;-79
2024/04/13 08:57:39;;;;;;;7.38;6.40;;;18.20;73.90;;;;;;5370421;26;20004;-80
2024/04/13 09:00:15;;;;;;;9.38;7.25;;;18.30;72.70;;;;;;5381532;26;20027;-79
2024/04/13 09:02:44;;;;;;;7.22;6.53;;;18.40;71.60;;;;;;5378142;26;20004;-79
2024/04/13 09:05:11;;;;;;;11.23;6.68;;;18.20;70.40;;;;;;5340470;26;20023;-79
2024/04/13 09:07:37;;;;;;;9.93;6.55;;;18.00;69.30;;;;;;5320761;26;20005;-80
2024/04/13 09:10:04;;;;;;;8.93;6.60;;;18.30;70.20;;;;;;5374409;26;20074;-79
2024/04/13 09:12:30;;;;;;;7.32;6.50;;;18.60;69.40;;;;;;5379892;26;20365;-79
2024/04/13 09:14:57;;;;;;;9.40;6.85;;;18.80;69.30;;;;;;5379645;26;20008;-80
2024/04/13 09:17:24;;;;;;;8.52;6.22;;;19.10;68.30;;;;;;5378334;26;20008;-80
2024/04/13 09:19:50;;;;;;;8.13;7.18;;;19.00;68.30;;;;;;5378568;26;20004;-80
2024/04/13 09:22:16;;;;;;;9.07;6.80;;;18.50;68.00;;;;;;5355837;26;20001;-80
2024/04/13 09:24:43;;;;;;;9.35;7.18;;;18.20;69.20;;;;;;5371336;26;20540;-80
2024/04/13 09:27:25;;;;;;;10.68;7.28;;;18.40;69.80;;;;;;5360978;26;20019;-80
2024/04/13 09:29:50;;;;;;;11.60;6.88;;;18.30;69.70;;;;;;5368642;26;20019;-78
2024/04/13 09:32:26;;;;;;;7.70;6.75;;;18.70;70.60;;;;;;5377352;26;20011;-79
2024/04/13 09:34:52;;;;;;;9.13;6.93;;;18.80;69.10;;;;;;5378191;26;20004;-78
2024/04/13 09:37:18;;;;;;;7.70;6.85;;;19.10;68.20;;;;;;5379379;26;20086;-79
2024/04/13 09:39:44;;;;;;;9.68;6.47;;;19.10;68.10;;;;;;5369114;26;20023;-80
2024/04/13 09:42:12;;;;;;;6.72;6.03;;;19.00;67.80;;;;;;5356164;26;20081;-78
2024/04/13 09:44:38;;;;;;;11.80;5.80;;;19.20;68.60;;;;;;5356944;26;20005;-79
2024/04/13 09:47:04;;;;;;;8.55;5.53;;;19.40;67.40;;;;;;5336101;26;20009;-78
2024/04/13 09:49:30;;;;;;;6.70;6.00;;;19.70;67.10;;;;;;5367300;26;20413;-78
2024/04/13 09:51:56;;;;;;;9.07;5.82;;;19.20;65.20;;;;;;5333453;26;20470;-78
2024/04/13 09:54:26;;;;;;;8.60;5.75;;;19.20;65.70;;;;;;5353676;26;20018;-78
2024/04/13 09:56:53;;;;;;;8.73;4.75;;;19.10;66.30;;;;;;5365214;26;20012;-79
2024/04/13 09:59:22;;;;;;;6.50;5.80;;;19.30;68.30;;;;;;5379264;26;20047;-79
2024/04/13 10:01:48;;;;;;;9.88;5.63;;;19.40;66.70;;;;;;5379715;26;19996;-79
2024/04/13 10:04:14;;;;;;;8.02;5.15;;;19.50;66.40;;;;;;5374839;26;20011;-78
2024/04/13 10:06:40;;;;;;;4.88;4.43;;;19.70;65.50;;;;;;5379222;26;20004;-79
2024/04/13 10:09:11;;;;;;;6.35;4.65;;;19.70;65.10;;;;;;5378094;26;20008;-80
2024/04/13 10:11:44;;;;;;;5.57;4.32;;;19.60;64.50;;;;;;5380462;26;20575;-78
2024/04/13 10:14:15;;;;;;;4.90;4.05;;;19.40;64.70;;;;;;5379999;26;20658;-79
2024/04/13 10:16:45;;;;;;;5.90;4.53;;;19.30;63.40;;;;;;5375125;26;20078;-78
2024/04/13 10:19:14;;;;;;;7.65;4.10;;;19.30;63.80;;;;;;5375747;26;20040;-79
2024/04/13 10:21:39;;;;;;;11.75;5.47;;;19.20;64.10;;;;;;5376958;26;20089;-79
2024/04/13 10:24:14;;;;;;;7.03;4.85;;;19.10;64.20;;;;;;5377914;26;20006;-78
2024/04/13 10:26:40;;;;;;;8.25;4.55;;;19.40;64.50;;;;;;5380326;26;20004;-78
2024/04/13 10:29:05;;;;;;;10.23;5.13;;;19.30;63.90;;;;;;5372316;26;20012;-78
2024/04/13 10:31:31;;;;;;;6.57;4.90;;;19.40;63.90;;;;;;5366571;26;20007;-78
2024/04/13 10:33:57;;;;;;;7.53;4.80;;;19.60;64.20;;;;;;5372296;26;20380;-78
2024/04/13 10:36:30;;;;;;;10.07;4.60;;;19.70;64.00;;;;;;5379786;26;20077;-78
2024/04/13 10:38:58;;;;;;;4.93;4.15;;;19.90;64.20;;;;;;5382187;26;20016;-78
2024/04/13 10:41:34;;;;;;;6.38;4.35;;;20.20;64.40;;;;;;5380861;26;20008;-78
2024/04/13 10:44:01;;;;;;;7.65;4.35;;;20.20;63.20;;;;;;5377469;26;20000;-77
2024/04/13 10:46:27;;;;;;;6.25;4.25;;;20.00;62.80;;;;;;5380525;26;20000;-78
2024/04/13 10:48:53;;;;;;;8.07;4.43;;;19.70;63.10;;;;;;5379639;26;20005;-77
2024/04/13 10:51:21;;;;;;;6.97;5.65;;;19.50;63.50;;;;;;5379070;26;20040;-77
2024/04/13 10:53:47;;;;;;;8.52;4.68;;;19.20;64.20;;;;;;5377500;26;20412;-76
2024/04/13 10:56:13;;;;;;;6.63;4.13;;;19.30;64.90;;;;;;5377567;26;20020;-77
2024/04/13 10:58:39;;;;;;;6.22;4.25;;;19.30;65.20;;;;;;5378282;26;20077;-77
2024/04/13 11:01:06;;;;;;;5.35;4.20;;;19.40;65.20;;;;;;5377766;26;20004;-77
2024/04/13 11:03:32;;;;;;;5.57;4.57;;;19.40;63.90;;;;;;5376852;26;20004;-77
2024/04/13 11:05:59;;;;;;;7.63;4.30;;;19.40;61.70;;;;;;5379545;26;20330;-78
2024/04/13 11:08:25;;;;;;;5.10;4.43;;;19.70;62.70;;;;;;5369826;26;20016;-75
2024/04/13 11:10:58;;;;;;;5.38;4.32;;;19.80;62.00;;;;;;5343497;26;20005;-76
2024/04/13 11:13:25;;;;;;;7.40;4.60;;;19.70;61.60;;;;;;5377737;26;20016;-75
2024/04/13 11:15:51;;;;;;;6.50;4.03;;;19.60;61.10;;;;;;5378125;26;20023;-76
2024/04/13 11:18:17;;;;;;;6.28;4.28;;;19.60;61.30;;;;;;5378544;26;20016;-76
2024/04/13 11:20:51;;;;;;;5.43;4.43;;;19.80;61.70;;;;;;5379700;26;20008;-76
2024/04/13 11:23:17;;;;;;;9.85;4.60;;;19.90;60.10;;;;;;5419112;26;20044;-75
2024/04/13 11:25:42;;;;;;;4.90;4.13;;;19.90;59.40;;;;;;5378212;26;20015;-77
2024/04/13 11:28:09;;;;;;;5.93;3.67;;;20.10;59.70;;;;;;5351520;26;20409;-76
2024/04/13 11:30:41;;;;;;;4.28;3.88;;;20.30;60.40;;;;;;5361493;26;20005;-77
2024/04/13 11:33:10;;;;;;;6.57;4.25;;;20.40;59.00;;;;;;5369860;26;20027;-77
2024/04/13 11:35:36;;;;;;;6.40;3.70;;;20.60;59.60;;;;;;5369840;26;20098;-76
2024/04/13 11:38:02;;;;;;;7.15;4.43;;;20.60;57.70;;;;;;5362931;26;20000;-76
2024/04/13 11:40:37;;;;;;;7.30;4.40;;;20.80;58.10;;;;;;5333372;26;20707;-77
2024/04/13 11:43:03;;;;;;;6.88;3.88;;;20.70;58.20;;;;;;5365760;26;20015;-80
2024/04/13 11:45:30;;;;;;;10.80;5.15;;;20.70;58.30;;;;;;5381918;26;20004;-77
2024/04/13 11:47:55;;;;;;;5.00;4.43;;;20.70;58.50;;;;;;5376838;26;20019;-77
2024/04/13 11:50:22;;;;;;;9.07;4.63;;;20.80;58.40;;;;;;5438238;26;20031;-78
2024/04/13 11:52:48;;;;;;;9.20;4.65;;;20.80;57.80;;;;;;5377352;26;20011;-77
2024/04/13 11:55:24;;;;;;;10.55;4.15;;;21.00;57.40;;;;;;5353752;26;20008;-77
2024/04/13 11:57:50;;;;;;;6.68;5.20;;;21.00;57.50;;;;;;5379262;26;20016;-77
2024/04/13 12:00:16;;;;;;;5.63;4.72;;;21.20;57.40;;;;;;5382476;26;20004;-79
2024/04/13 12:02:46;;;;;;;5.45;4.20;;;21.40;57.80;;;;;;5378056;26;20012;-79
2024/04/13 12:05:13;;;;;;;6.60;3.90;;;21.30;57.00;;;;;;5381693;26;20449;-79
2024/04/13 12:07:38;;;;;;;7.38;4.00;;;21.10;57.00;;;;;;5383277;26;20001;-80
2024/04/13 12:10:04;;;;;;;4.72;3.67;;;20.90;56.40;;;;;;5355091;26;20323;-79
2024/04/13 12:12:30;;;;;;;6.20;3.78;;;20.50;55.50;;;;;;5355834;26;20008;-78
2024/04/13 12:14:56;;;;;;;4.82;3.35;;;20.50;55.70;;;;;;5348675;26;20043;-78
2024/04/13 12:17:22;;;;;;;3.00;2.70;;;20.50;55.90;;;;;;5381897;26;20012;-77
2024/04/13 12:19:48;;;;;;;4.22;2.97;;;20.80;56.30;;;;;;5380367;26;19993;-79
2024/04/13 12:22:13;;;;;;;48.45;36.65;;;21.00;56.30;;;;;;5346578;26;20032;-77
2024/04/13 12:24:39;;;;;;;26.63;19.05;;;20.90;54.00;;;;;;5372545;26;20024;-78
2024/04/13 12:27:05;;;;;;;4.15;3.50;;;20.90;54.20;;;;;;5369509;26;20004;-77
2024/04/13 12:29:31;;;;;;;3.53;3.03;;;21.00;53.40;;;;;;5372166;26;20524;-77
2024/04/13 12:31:59;;;;;;;12.50;6.63;;;21.10;53.30;;;;;;5381977;26;20477;-78
2024/04/13 12:34:24;;;;;;;10.18;7.32;;;21.30;54.50;;;;;;5375541;26;20005;-77
2024/04/13 12:36:50;;;;;;;5.32;4.10;;;21.30;54.30;;;;;;5375266;26;20066;-77